sensor_id;sensor_type;location;lat;lon;timestamp;pressure;altitude;pressure_sealevel;temperature;humidity
64115;BME280;62188;35.640;139.748;2023-11-19T00:02:21;101011.18;;;19.58;20.35
64115;BME280;62188;35.640;139.748;2023-11-19T00:04:46;101008.27;;;19.53;21.23
64115;BME280;62188;35.640;139.748;2023-11-19T00:07:11;101009.33;;;19.93;20.83
64115;BME280;62188;35.640;139.748;2023-11-19T00:09:37;101015.24;;;20.37;20.70
64115;BME280;62188;35.640;139.748;2023-11-19T00:12:02;101023.50;;;20.55;19.62
64115;BME280;62188;35.640;139.748;2023-11-19T00:14:27;101027.74;;;20.28;19.63
64115;BME280;62188;35.640;139.748;2023-11-19T00:16:53;101030.75;;;20.37;19.53
64115;BME280;62188;35.640;139.748;2023-11-19T00:19:18;101031.54;;;19.78;19.83
64115;BME280;62188;35.640;139.748;2023-11-19T00:21:44;101032.51;;;19.30;20.29
64115;BME280;62188;35.640;139.748;2023-11-19T00:24:09;101039.33;;;19.02;20.65
64115;BME280;62188;35.640;139.748;2023-11-19T00:26:35;101039.50;;;20.05;21.02
64115;BME280;62188;35.640;139.748;2023-11-19T00:29:00;101042.79;;;19.93;20.62
64115;BME280;62188;35.640;139.748;2023-11-19T00:31:26;101044.20;;;20.24;20.28
64115;BME280;62188;35.640;139.748;2023-11-19T00:33:51;101044.35;;;20.97;20.39
64115;BME280;62188;35.640;139.748;2023-11-19T00:36:16;101052.45;;;20.97;19.69
64115;BME280;62188;35.640;139.748;2023-11-19T00:38:42;101056.32;;;21.20;21.89
64115;BME280;62188;35.640;139.748;2023-11-19T00:41:08;101044.33;;;21.47;20.28
64115;BME280;62188;35.640;139.748;2023-11-19T00:43:33;101040.35;;;21.92;20.98
64115;BME280;62188;35.640;139.748;2023-11-19T00:45:58;101044.53;;;22.40;21.79
64115;BME280;62188;35.640;139.748;2023-11-19T00:48:23;101046.13;;;22.38;19.78
64115;BME280;62188;35.640;139.748;2023-11-19T00:50:49;101045.25;;;22.48;20.30
64115;BME280;62188;35.640;139.748;2023-11-19T00:53:15;101042.63;;;22.34;19.46
64115;BME280;62188;35.640;139.748;2023-11-19T00:55:40;101049.70;;;22.62;20.95
64115;BME280;62188;35.640;139.748;2023-11-19T00:58:05;101055.78;;;22.32;19.62
64115;BME280;62188;35.640;139.748;2023-11-19T01:00:31;101060.35;;;22.94;19.65
64115;BME280;62188;35.640;139.748;2023-11-19T01:02:56;101053.57;;;23.05;18.84
64115;BME280;62188;35.640;139.748;2023-11-19T01:05:22;101045.81;;;23.28;18.93
64115;BME280;62188;35.640;139.748;2023-11-19T01:07:47;101049.48;;;23.45;18.57
64115;BME280;62188;35.640;139.748;2023-11-19T01:10:13;101049.05;;;23.49;18.85
64115;BME280;62188;35.640;139.748;2023-11-19T01:12:38;101048.44;;;24.15;18.44
64115;BME280;62188;35.640;139.748;2023-11-19T01:15:05;101048.21;;;24.01;17.76
64115;BME280;62188;35.640;139.748;2023-11-19T01:17:28;101043.89;;;24.23;17.73
64115;BME280;62188;35.640;139.748;2023-11-19T01:19:54;101043.57;;;24.26;17.55
64115;BME280;62188;35.640;139.748;2023-11-19T01:22:19;101045.51;;;24.48;17.14
64115;BME280;62188;35.640;139.748;2023-11-19T01:24:45;101044.35;;;24.61;16.85
64115;BME280;62188;35.640;139.748;2023-11-19T01:27:10;101042.43;;;24.41;17.27
64115;BME280;62188;35.640;139.748;2023-11-19T01:29:35;101037.46;;;24.59;17.38
64115;BME280;62188;35.640;139.748;2023-11-19T01:32:01;101026.53;;;25.00;17.11
64115;BME280;62188;35.640;139.748;2023-11-19T01:34:26;101018.42;;;24.97;16.80
64115;BME280;62188;35.640;139.748;2023-11-19T01:36:52;101011.93;;;25.04;16.79
64115;BME280;62188;35.640;139.748;2023-11-19T01:39:17;101009.37;;;25.31;16.49
64115;BME280;62188;35.640;139.748;2023-11-19T01:41:43;101003.67;;;25.61;16.54
64115;BME280;62188;35.640;139.748;2023-11-19T01:44:08;100997.46;;;25.48;16.33
64115;BME280;62188;35.640;139.748;2023-11-19T01:46:33;100996.30;;;25.66;16.35
64115;BME280;62188;35.640;139.748;2023-11-19T01:48:58;100992.19;;;25.32;16.02
64115;BME280;62188;35.640;139.748;2023-11-19T01:51:24;100985.92;;;25.61;16.00
64115;BME280;62188;35.640;139.748;2023-11-19T01:53:49;100983.64;;;25.77;15.80
64115;BME280;62188;35.640;139.748;2023-11-19T01:56:16;100980.90;;;26.14;15.72
64115;BME280;62188;35.640;139.748;2023-11-19T01:58:41;100976.54;;;26.50;15.11
64115;BME280;62188;35.640;139.748;2023-11-19T02:01:05;100972.06;;;26.20;15.08
64115;BME280;62188;35.640;139.748;2023-11-19T02:03:30;100969.57;;;26.30;14.93
64115;BME280;62188;35.640;139.748;2023-11-19T02:05:55;100966.19;;;26.29;15.48
64115;BME280;62188;35.640;139.748;2023-11-19T02:08:21;100960.66;;;26.48;15.85
64115;BME280;62188;35.640;139.748;2023-11-19T02:10:47;100957.59;;;26.15;16.09
64115;BME280;62188;35.640;139.748;2023-11-19T02:13:12;100953.35;;;25.91;16.47
64115;BME280;62188;35.640;139.748;2023-11-19T02:15:37;100946.10;;;25.91;16.40
64115;BME280;62188;35.640;139.748;2023-11-19T02:18:17;100940.18;;;25.96;16.46
64115;BME280;62188;35.640;139.748;2023-11-19T02:20:28;100938.88;;;25.85;16.69
64115;BME280;62188;35.640;139.748;2023-11-19T02:22:53;100927.29;;;25.73;16.60
64115;BME280;62188;35.640;139.748;2023-11-19T02:25:25;100916.71;;;25.69;16.59
64115;BME280;62188;35.640;139.748;2023-11-19T02:27:49;100906.31;;;26.42;16.59
64115;BME280;62188;35.640;139.748;2023-11-19T02:30:13;100907.81;;;24.30;17.62
64115;BME280;62188;35.640;139.748;2023-11-19T02:32:34;100901.65;;;23.34;18.05
64115;BME280;62188;35.640;139.748;2023-11-19T02:35:00;100897.33;;;24.45;17.64
64115;BME280;62188;35.640;139.748;2023-11-19T02:37:25;100904.06;;;24.70;17.25
64115;BME280;62188;35.640;139.748;2023-11-19T02:39:50;100905.22;;;24.98;16.54
64115;BME280;62188;35.640;139.748;2023-11-19T02:42:15;100902.35;;;25.66;15.98
64115;BME280;62188;35.640;139.748;2023-11-19T02:44:44;100906.09;;;25.57;16.06
64115;BME280;62188;35.640;139.748;2023-11-19T02:47:07;100904.87;;;25.95;15.87
64115;BME280;62188;35.640;139.748;2023-11-19T02:49:32;100901.73;;;25.78;16.98
64115;BME280;62188;35.640;139.748;2023-11-19T02:51:57;100894.40;;;25.73;16.39
64115;BME280;62188;35.640;139.748;2023-11-19T02:54:23;100888.51;;;25.93;16.32
64115;BME280;62188;35.640;139.748;2023-11-19T02:56:48;100883.73;;;26.16;16.84
64115;BME280;62188;35.640;139.748;2023-11-19T02:59:13;100877.06;;;26.69;17.10
64115;BME280;62188;35.640;139.748;2023-11-19T03:01:39;100870.95;;;26.79;17.03
64115;BME280;62188;35.640;139.748;2023-11-19T03:04:04;100860.78;;;26.89;17.10
64115;BME280;62188;35.640;139.748;2023-11-19T03:06:30;100858.89;;;27.32;16.88
64115;BME280;62188;35.640;139.748;2023-11-19T03:08:56;100859.17;;;27.59;16.78
64115;BME280;62188;35.640;139.748;2023-11-19T03:11:20;100855.88;;;27.15;16.89
64115;BME280;62188;35.640;139.748;2023-11-19T03:13:45;100847.85;;;27.31;16.85
64115;BME280;62188;35.640;139.748;2023-11-19T03:16:10;100844.20;;;26.93;16.77
64115;BME280;62188;35.640;139.748;2023-11-19T03:18:35;100842.33;;;26.95;16.81
64115;BME280;62188;35.640;139.748;2023-11-19T03:21:01;100841.06;;;26.75;16.61
64115;BME280;62188;35.640;139.748;2023-11-19T03:23:26;100837.56;;;26.90;16.62
64115;BME280;62188;35.640;139.748;2023-11-19T03:25:51;100834.50;;;26.67;16.64
64115;BME280;62188;35.640;139.748;2023-11-19T03:28:17;100839.42;;;26.50;16.57
64115;BME280;62188;35.640;139.748;2023-11-19T03:30:42;100839.65;;;25.96;16.81
64115;BME280;62188;35.640;139.748;2023-11-19T03:33:08;100835.11;;;25.51;17.11
64115;BME280;62188;35.640;139.748;2023-11-19T03:35:33;100836.60;;;24.69;17.74
64115;BME280;62188;35.640;139.748;2023-11-19T03:37:59;100838.76;;;23.93;17.96
64115;BME280;62188;35.640;139.748;2023-11-19T03:40:24;100834.53;;;24.00;18.11
64115;BME280;62188;35.640;139.748;2023-11-19T03:42:49;100834.04;;;22.71;18.74
64115;BME280;62188;35.640;139.748;2023-11-19T03:45:15;100833.55;;;22.69;18.87
64115;BME280;62188;35.640;139.748;2023-11-19T03:47:41;100826.95;;;22.15;19.23
64115;BME280;62188;35.640;139.748;2023-11-19T03:50:07;100824.36;;;21.57;19.87
64115;BME280;62188;35.640;139.748;2023-11-19T03:52:31;100824.47;;;21.63;19.75
64115;BME280;62188;35.640;139.748;2023-11-19T03:54:57;100824.64;;;21.31;19.81
64115;BME280;62188;35.640;139.748;2023-11-19T03:57:23;100831.33;;;21.22;20.04
64115;BME280;62188;35.640;139.748;2023-11-19T03:59:47;100828.53;;;21.11;20.94
64115;BME280;62188;35.640;139.748;2023-11-19T04:02:13;100828.31;;;21.23;20.73
64115;BME280;62188;35.640;139.748;2023-11-19T04:04:39;100823.78;;;21.74;20.21
64115;BME280;62188;35.640;139.748;2023-11-19T04:07:05;100819.67;;;22.37;19.72
64115;BME280;62188;35.640;139.748;2023-11-19T04:09:30;100812.01;;;23.23;19.39
64115;BME280;62188;35.640;139.748;2023-11-19T04:11:55;100810.40;;;23.98;20.03
64115;BME280;62188;35.640;139.748;2023-11-19T04:14:20;100813.90;;;24.72;19.63
64115;BME280;62188;35.640;139.748;2023-11-19T04:16:45;100814.49;;;24.99;19.12
64115;BME280;62188;35.640;139.748;2023-11-19T04:19:11;100818.57;;;25.80;18.45
64115;BME280;62188;35.640;139.748;2023-11-19T04:21:36;100812.70;;;26.51;17.99
64115;BME280;62188;35.640;139.748;2023-11-19T04:24:01;100804.52;;;26.19;16.67
64115;BME280;62188;35.640;139.748;2023-11-19T04:26:27;100798.15;;;26.84;16.05
64115;BME280;62188;35.640;139.748;2023-11-19T04:28:52;100794.18;;;26.40;17.05
64115;BME280;62188;35.640;139.748;2023-11-19T04:31:17;100788.72;;;25.98;19.94
64115;BME280;62188;35.640;139.748;2023-11-19T04:33:42;100775.88;;;25.07;22.30
64115;BME280;62188;35.640;139.748;2023-11-19T04:36:09;100774.81;;;24.85;22.23
64115;BME280;62188;35.640;139.748;2023-11-19T04:38:33;100769.53;;;23.98;23.16
64115;BME280;62188;35.640;139.748;2023-11-19T04:40:58;100765.74;;;23.10;20.27
64115;BME280;62188;35.640;139.748;2023-11-19T04:43:24;100761.36;;;22.42;20.60
64115;BME280;62188;35.640;139.748;2023-11-19T04:45:49;100761.66;;;22.14;20.39
64115;BME280;62188;35.640;139.748;2023-11-19T04:48:15;100768.01;;;21.37;20.75
64115;BME280;62188;35.640;139.748;2023-11-19T04:50:40;100771.83;;;21.14;21.81
64115;BME280;62188;35.640;139.748;2023-11-19T04:53:05;100767.87;;;20.91;23.48
64115;BME280;62188;35.640;139.748;2023-11-19T04:55:31;100767.05;;;21.23;23.46
64115;BME280;62188;35.640;139.748;2023-11-19T04:57:56;100768.30;;;20.86;23.83
64115;BME280;62188;35.640;139.748;2023-11-19T05:00:22;100770.91;;;20.36;24.25
64115;BME280;62188;35.640;139.748;2023-11-19T05:02:47;100769.12;;;20.34;23.84
64115;BME280;62188;35.640;139.748;2023-11-19T05:05:12;100762.75;;;19.74;25.06
64115;BME280;62188;35.640;139.748;2023-11-19T05:07:38;100758.27;;;19.93;25.41
64115;BME280;62188;35.640;139.748;2023-11-19T05:10:04;100759.88;;;19.89;25.88
64115;BME280;62188;35.640;139.748;2023-11-19T05:12:29;100756.78;;;19.63;25.59
64115;BME280;62188;35.640;139.748;2023-11-19T05:14:54;100755.55;;;19.59;24.46
64115;BME280;62188;35.640;139.748;2023-11-19T05:17:19;100754.17;;;19.04;22.96
64115;BME280;62188;35.640;139.748;2023-11-19T05:19:45;100752.08;;;19.40;24.52
64115;BME280;62188;35.640;139.748;2023-11-19T05:22:11;100753.24;;;19.56;23.45
64115;BME280;62188;35.640;139.748;2023-11-19T05:24:37;100752.93;;;19.27;24.22
64115;BME280;62188;35.640;139.748;2023-11-19T05:27:02;100757.45;;;19.37;25.44
64115;BME280;62188;35.640;139.748;2023-11-19T05:29:28;100758.80;;;18.89;25.18
64115;BME280;62188;35.640;139.748;2023-11-19T05:31:52;100761.64;;;19.13;24.70
64115;BME280;62188;35.640;139.748;2023-11-19T05:34:18;100760.07;;;19.28;24.14
64115;BME280;62188;35.640;139.748;2023-11-19T05:36:43;100764.73;;;19.04;23.69
64115;BME280;62188;35.640;139.748;2023-11-19T05:39:09;100768.01;;;18.90;23.32
64115;BME280;62188;35.640;139.748;2023-11-19T05:41:35;100772.97;;;18.65;24.26
64115;BME280;62188;35.640;139.748;2023-11-19T05:44:00;100769.16;;;18.16;24.38
64115;BME280;62188;35.640;139.748;2023-11-19T05:46:25;100768.29;;;18.11;23.60
64115;BME280;62188;35.640;139.748;2023-11-19T05:48:51;100770.70;;;18.51;23.64
64115;BME280;62188;35.640;139.748;2023-11-19T05:51:16;100769.00;;;18.01;22.40
64115;BME280;62188;35.640;139.748;2023-11-19T05:53:42;100772.38;;;18.84;22.18
64115;BME280;62188;35.640;139.748;2023-11-19T05:56:08;100768.21;;;18.40;22.00
64115;BME280;62188;35.640;139.748;2023-11-19T05:58:32;100769.20;;;17.90;22.61
64115;BME280;62188;35.640;139.748;2023-11-19T06:00:58;100773.13;;;18.66;21.98
64115;BME280;62188;35.640;139.748;2023-11-19T06:03:24;100774.48;;;18.49;22.16
64115;BME280;62188;35.640;139.748;2023-11-19T06:05:49;100779.92;;;18.44;21.69
64115;BME280;62188;35.640;139.748;2023-11-19T06:08:14;100779.88;;;18.52;20.62
64115;BME280;62188;35.640;139.748;2023-11-19T06:10:41;100779.82;;;18.33;21.33
64115;BME280;62188;35.640;139.748;2023-11-19T06:13:05;100777.40;;;18.20;21.64
64115;BME280;62188;35.640;139.748;2023-11-19T06:15:31;100779.25;;;18.38;21.49
64115;BME280;62188;35.640;139.748;2023-11-19T06:17:56;100786.35;;;18.28;21.74
64115;BME280;62188;35.640;139.748;2023-11-19T06:20:22;100795.71;;;18.54;22.03
64115;BME280;62188;35.640;139.748;2023-11-19T06:22:47;100802.25;;;18.83;22.34
64115;BME280;62188;35.640;139.748;2023-11-19T06:25:13;100804.95;;;18.63;21.90
64115;BME280;62188;35.640;139.748;2023-11-19T06:27:37;100805.65;;;18.91;21.05
64115;BME280;62188;35.640;139.748;2023-11-19T06:30:04;100802.11;;;18.23;20.65
64115;BME280;62188;35.640;139.748;2023-11-19T06:32:29;100799.87;;;18.33;20.48
64115;BME280;62188;35.640;139.748;2023-11-19T06:34:54;100797.45;;;19.01;20.29
64115;BME280;62188;35.640;139.748;2023-11-19T06:37:20;100798.35;;;18.81;20.48
64115;BME280;62188;35.640;139.748;2023-11-19T06:39:45;100797.04;;;19.19;21.03
64115;BME280;62188;35.640;139.748;2023-11-19T06:42:11;100796.33;;;19.10;21.79
64115;BME280;62188;35.640;139.748;2023-11-19T06:44:36;100796.22;;;18.91;20.84
64115;BME280;62188;35.640;139.748;2023-11-19T06:47:02;100797.09;;;19.39;20.83
64115;BME280;62188;35.640;139.748;2023-11-19T06:49:27;100800.86;;;18.89;20.96
64115;BME280;62188;35.640;139.748;2023-11-19T06:51:52;100802.59;;;19.11;21.24
64115;BME280;62188;35.640;139.748;2023-11-19T06:54:18;100804.82;;;18.85;21.09
64115;BME280;62188;35.640;139.748;2023-11-19T06:56:43;100805.78;;;18.97;21.27
64115;BME280;62188;35.640;139.748;2023-11-19T06:59:09;100800.89;;;19.20;20.92
64115;BME280;62188;35.640;139.748;2023-11-19T07:01:36;100809.33;;;19.00;21.15
64115;BME280;62188;35.640;139.748;2023-11-19T07:03:59;100810.42;;;19.03;21.61
64115;BME280;62188;35.640;139.748;2023-11-19T07:06:25;100809.46;;;19.05;21.23
64115;BME280;62188;35.640;139.748;2023-11-19T07:08:50;100810.55;;;18.85;21.48
64115;BME280;62188;35.640;139.748;2023-11-19T07:11:16;100807.72;;;18.85;21.12
64115;BME280;62188;35.640;139.748;2023-11-19T07:13:42;100802.95;;;18.90;21.34
64115;BME280;62188;35.640;139.748;2023-11-19T07:16:08;100803.33;;;18.79;21.34
64115;BME280;62188;35.640;139.748;2023-11-19T07:18:33;100802.95;;;18.57;21.57
64115;BME280;62188;35.640;139.748;2023-11-19T07:20:58;100810.14;;;18.82;22.01
64115;BME280;62188;35.640;139.748;2023-11-19T07:23:23;100817.46;;;18.80;21.41
64115;BME280;62188;35.640;139.748;2023-11-19T07:25:49;100820.14;;;18.69;21.39
64115;BME280;62188;35.640;139.748;2023-11-19T07:28:14;100823.13;;;18.64;21.38
64115;BME280;62188;35.640;139.748;2023-11-19T07:30:40;100823.25;;;18.40;21.37
64115;BME280;62188;35.640;139.748;2023-11-19T07:33:05;100824.96;;;18.95;21.60
64115;BME280;62188;35.640;139.748;2023-11-19T07:35:31;100827.54;;;18.75;21.42
64115;BME280;62188;35.640;139.748;2023-11-19T07:37:56;100833.07;;;18.51;21.38
64115;BME280;62188;35.640;139.748;2023-11-19T07:40:21;100834.48;;;18.87;21.49
64115;BME280;62188;35.640;139.748;2023-11-19T07:42:47;100829.74;;;18.83;21.71
64115;BME280;62188;35.640;139.748;2023-11-19T07:45:13;100826.19;;;18.65;22.20
64115;BME280;62188;35.640;139.748;2023-11-19T07:47:37;100830.20;;;18.47;22.18
64115;BME280;62188;35.640;139.748;2023-11-19T07:50:04;100831.00;;;18.73;21.72
64115;BME280;62188;35.640;139.748;2023-11-19T07:52:29;100832.36;;;18.74;21.38
64115;BME280;62188;35.640;139.748;2023-11-19T07:54:54;100832.76;;;18.71;21.31
64115;BME280;62188;35.640;139.748;2023-11-19T07:57:20;100838.54;;;18.55;21.17
64115;BME280;62188;35.640;139.748;2023-11-19T07:59:46;100841.45;;;18.10;21.95
64115;BME280;62188;35.640;139.748;2023-11-19T08:02:11;100843.45;;;18.37;23.49
64115;BME280;62188;35.640;139.748;2023-11-19T08:04:36;100849.43;;;18.51;24.49
64115;BME280;62188;35.640;139.748;2023-11-19T08:07:02;100859.30;;;18.18;25.27
64115;BME280;62188;35.640;139.748;2023-11-19T08:09:27;100859.18;;;17.98;27.00
64115;BME280;62188;35.640;139.748;2023-11-19T08:11:53;100861.25;;;17.83;27.70
64115;BME280;62188;35.640;139.748;2023-11-19T08:14:18;100863.43;;;17.72;28.48
64115;BME280;62188;35.640;139.748;2023-11-19T08:16:43;100863.52;;;17.81;30.22
64115;BME280;62188;35.640;139.748;2023-11-19T08:19:09;100859.90;;;17.64;30.10
64115;BME280;62188;35.640;139.748;2023-11-19T08:21:34;100863.11;;;17.70;31.16
64115;BME280;62188;35.640;139.748;2023-11-19T08:24:00;100864.64;;;17.87;31.27
64115;BME280;62188;35.640;139.748;2023-11-19T08:26:26;100866.13;;;17.74;31.41
64115;BME280;62188;35.640;139.748;2023-11-19T08:28:51;100867.09;;;17.85;31.27
64115;BME280;62188;35.640;139.748;2023-11-19T08:31:16;100869.87;;;17.99;31.07
64115;BME280;62188;35.640;139.748;2023-11-19T08:33:42;100874.27;;;18.10;30.88
64115;BME280;62188;35.640;139.748;2023-11-19T08:36:08;100874.59;;;18.16;30.59
64115;BME280;62188;35.640;139.748;2023-11-19T08:38:33;100875.17;;;18.20;30.69
64115;BME280;62188;35.640;139.748;2023-11-19T08:40:59;100873.76;;;18.27;30.83
64115;BME280;62188;35.640;139.748;2023-11-19T08:43:24;100875.53;;;18.33;30.84
64115;BME280;62188;35.640;139.748;2023-11-19T08:45:49;100879.84;;;18.31;31.11
64115;BME280;62188;35.640;139.748;2023-11-19T08:48:15;100883.16;;;18.33;31.98
64115;BME280;62188;35.640;139.748;2023-11-19T08:50:40;100888.20;;;18.21;33.50
64115;BME280;62188;35.640;139.748;2023-11-19T08:53:06;100889.03;;;17.78;34.31
64115;BME280;62188;35.640;139.748;2023-11-19T08:55:31;100889.29;;;17.83;35.19
64115;BME280;62188;35.640;139.748;2023-11-19T08:57:56;100892.55;;;17.88;35.30
64115;BME280;62188;35.640;139.748;2023-11-19T09:00:22;100894.25;;;17.79;35.48
64115;BME280;62188;35.640;139.748;2023-11-19T09:02:48;100899.49;;;17.85;35.39
64115;BME280;62188;35.640;139.748;2023-11-19T09:05:13;100896.54;;;17.84;35.68
64115;BME280;62188;35.640;139.748;2023-11-19T09:07:38;100897.86;;;17.86;35.55
64115;BME280;62188;35.640;139.748;2023-11-19T09:10:05;100900.41;;;18.33;35.74
64115;BME280;62188;35.640;139.748;2023-11-19T09:12:29;100898.61;;;17.82;35.98
64115;BME280;62188;35.640;139.748;2023-11-19T09:14:56;100899.34;;;17.75;35.99
64115;BME280;62188;35.640;139.748;2023-11-19T09:17:21;100907.51;;;17.97;36.84
64115;BME280;62188;35.640;139.748;2023-11-19T09:19:46;100912.93;;;17.86;36.56
64115;BME280;62188;35.640;139.748;2023-11-19T09:22:12;100918.40;;;17.61;36.70
64115;BME280;62188;35.640;139.748;2023-11-19T09:24:37;100915.19;;;17.86;36.72
64115;BME280;62188;35.640;139.748;2023-11-19T09:27:03;100916.00;;;17.64;36.89
64115;BME280;62188;35.640;139.748;2023-11-19T09:29:28;100917.76;;;17.95;36.76
64115;BME280;62188;35.640;139.748;2023-11-19T09:31:53;100918.77;;;17.81;36.69
64115;BME280;62188;35.640;139.748;2023-11-19T09:34:18;100921.60;;;17.90;36.66
64115;BME280;62188;35.640;139.748;2023-11-19T09:36:44;100918.75;;;17.89;36.61
64115;BME280;62188;35.640;139.748;2023-11-19T09:39:10;100915.88;;;17.93;36.66
64115;BME280;62188;35.640;139.748;2023-11-19T09:41:35;100913.71;;;17.93;36.84
64115;BME280;62188;35.640;139.748;2023-11-19T09:44:01;100911.40;;;17.94;36.94
64115;BME280;62188;35.640;139.748;2023-11-19T09:46:27;100912.08;;;17.96;37.01
64115;BME280;62188;35.640;139.748;2023-11-19T09:48:54;100908.09;;;17.89;37.12
64115;BME280;62188;35.640;139.748;2023-11-19T09:51:17;100910.00;;;17.82;37.19
64115;BME280;62188;35.640;139.748;2023-11-19T09:53:42;100904.23;;;17.80;37.28
64115;BME280;62188;35.640;139.748;2023-11-19T09:56:08;100904.84;;;17.58;37.34
64115;BME280;62188;35.640;139.748;2023-11-19T09:58:34;100897.96;;;17.84;37.24
64115;BME280;62188;35.640;139.748;2023-11-19T10:00:59;100889.87;;;18.09;37.37
64115;BME280;62188;35.640;139.748;2023-11-19T10:03:25;100889.44;;;17.86;37.31
64115;BME280;62188;35.640;139.748;2023-11-19T10:05:50;100891.53;;;17.90;37.28
64115;BME280;62188;35.640;139.748;2023-11-19T10:08:15;100890.94;;;17.85;37.34
64115;BME280;62188;35.640;139.748;2023-11-19T10:10:40;100886.49;;;17.82;37.37
64115;BME280;62188;35.640;139.748;2023-11-19T10:13:07;100886.97;;;17.80;37.35
64115;BME280;62188;35.640;139.748;2023-11-19T10:15:37;100884.58;;;17.71;37.61
64115;BME280;62188;35.640;139.748;2023-11-19T10:17:57;100881.08;;;17.70;37.61
64115;BME280;62188;35.640;139.748;2023-11-19T10:20:22;100882.20;;;17.71;37.56
64115;BME280;62188;35.640;139.748;2023-11-19T10:22:50;100881.98;;;17.73;37.72
64115;BME280;62188;35.640;139.748;2023-11-19T10:25:25;100879.91;;;17.74;37.57
64115;BME280;62188;35.640;139.748;2023-11-19T10:27:40;100878.50;;;18.00;37.62
64115;BME280;62188;35.640;139.748;2023-11-19T10:30:06;100872.20;;;17.77;37.67
64115;BME280;62188;35.640;139.748;2023-11-19T10:32:31;100869.93;;;17.78;37.60
64115;BME280;62188;35.640;139.748;2023-11-19T10:35:05;100862.27;;;17.80;37.54
64115;BME280;62188;35.640;139.748;2023-11-19T10:37:27;100858.10;;;17.77;37.67
64115;BME280;62188;35.640;139.748;2023-11-19T10:39:55;100854.01;;;17.76;37.67
64115;BME280;62188;35.640;139.748;2023-11-19T10:42:16;100850.90;;;17.99;37.69
64115;BME280;62188;35.640;139.748;2023-11-19T10:44:38;100848.12;;;17.48;37.76
64115;BME280;62188;35.640;139.748;2023-11-19T10:47:07;100848.70;;;17.66;37.76
64115;BME280;62188;35.640;139.748;2023-11-19T10:49:29;100848.34;;;17.60;37.83
64115;BME280;62188;35.640;139.748;2023-11-19T10:51:54;100847.24;;;17.83;37.95
64115;BME280;62188;35.640;139.748;2023-11-19T10:54:20;100844.54;;;17.59;38.00
64115;BME280;62188;35.640;139.748;2023-11-19T10:56:46;100841.47;;;17.59;37.99
64115;BME280;62188;35.640;139.748;2023-11-19T10:59:11;100839.13;;;17.79;37.98
64115;BME280;62188;35.640;139.748;2023-11-19T11:01:43;100837.36;;;17.52;38.15
64115;BME280;62188;35.640;139.748;2023-11-19T11:04:03;100837.40;;;17.49;38.19
64115;BME280;62188;35.640;139.748;2023-11-19T11:06:28;100842.56;;;17.47;38.31
64115;BME280;62188;35.640;139.748;2023-11-19T11:08:53;100844.58;;;17.73;38.23
64115;BME280;62188;35.640;139.748;2023-11-19T11:11:18;100844.26;;;17.72;38.33
64115;BME280;62188;35.640;139.748;2023-11-19T11:13:45;100846.70;;;17.48;38.28
64115;BME280;62188;35.640;139.748;2023-11-19T11:16:09;100851.36;;;17.66;38.51
64115;BME280;62188;35.640;139.748;2023-11-19T11:18:35;100857.16;;;17.25;38.74
64115;BME280;62188;35.640;139.748;2023-11-19T11:21:04;100856.82;;;17.50;38.76
64115;BME280;62188;35.640;139.748;2023-11-19T11:23:40;100854.86;;;17.16;39.01
64115;BME280;62188;35.640;139.748;2023-11-19T11:25:58;100855.11;;;17.55;39.18
64115;BME280;62188;35.640;139.748;2023-11-19T11:28:26;100854.65;;;17.10;39.11
64115;BME280;62188;35.640;139.748;2023-11-19T11:30:55;100848.70;;;17.37;39.01
64115;BME280;62188;35.640;139.748;2023-11-19T11:33:20;100845.13;;;17.44;39.01
64115;BME280;62188;35.640;139.748;2023-11-19T11:35:39;100843.34;;;17.24;38.99
64115;BME280;62188;35.640;139.748;2023-11-19T11:38:04;100842.18;;;17.32;38.85
64115;BME280;62188;35.640;139.748;2023-11-19T11:40:25;100835.08;;;17.19;38.94
64115;BME280;62188;35.640;139.748;2023-11-19T11:42:51;100831.77;;;17.35;39.03
64115;BME280;62188;35.640;139.748;2023-11-19T11:45:16;100828.81;;;17.16;38.91
64115;BME280;62188;35.640;139.748;2023-11-19T11:50:09;100825.86;;;17.58;38.68
64115;BME280;62188;35.640;139.748;2023-11-19T11:52:32;100824.05;;;17.28;38.97
64115;BME280;62188;35.640;139.748;2023-11-19T11:55:04;100818.59;;;17.25;38.65
64115;BME280;62188;35.640;139.748;2023-11-19T11:57:23;100815.56;;;17.06;38.51
64115;BME280;62188;35.640;139.748;2023-11-19T11:59:50;100814.35;;;17.12;38.41
64115;BME280;62188;35.640;139.748;2023-11-19T12:02:15;100812.46;;;17.40;38.57
64115;BME280;62188;35.640;139.748;2023-11-19T12:04:40;100814.43;;;17.62;38.23
64115;BME280;62188;35.640;139.748;2023-11-19T12:07:06;100811.82;;;17.11;38.51
64115;BME280;62188;35.640;139.748;2023-11-19T12:09:30;100812.51;;;17.17;38.41
64115;BME280;62188;35.640;139.748;2023-11-19T12:12:07;100810.69;;;17.47;38.43
64115;BME280;62188;35.640;139.748;2023-11-19T12:16:47;100813.20;;;17.72;38.16
64115;BME280;62188;35.640;139.748;2023-11-19T12:19:12;100814.26;;;17.67;38.46
64115;BME280;62188;35.640;139.748;2023-11-19T12:21:38;100811.10;;;17.42;38.36
64115;BME280;62188;35.640;139.748;2023-11-19T12:24:04;100811.21;;;17.10;38.33
64115;BME280;62188;35.640;139.748;2023-11-19T12:26:35;100816.08;;;17.43;38.62